Time;durP1;ratioP1;P1;durP2;ratioP2;P2;SDS_P1;SDS_P2;PMS_P1;PMS_P2;Temp;Humidity;BMP_temperature;BMP_pressure;BME280_temperature;BME280_humidity;BME280_pressure;Samples;Min_cycle;Max_cycle;Signal;HPM_P1;HPM_P2
2022/09/13 00:02:12;;;;;;;4.55;3.40;;;;;;;23.20;55.82;101047.81;4995277;28;20061;-78
2022/09/13 00:04:39;;;;;;;9.45;3.60;;;;;;;23.13;55.89;101038.88;5007669;28;20060;-79
2022/09/13 00:07:06;;;;;;;5.72;3.10;;;;;;;23.17;55.98;101044.69;4990277;28;20129;-76
2022/09/13 00:09:33;;;;;;;7.60;3.45;;;;;;;23.15;55.95;101042.19;4990450;28;20050;-79
2022/09/13 00:11:59;;;;;;;6.80;3.78;;;;;;;23.02;56.01;101023.25;4990066;28;20081;-78
2022/09/13 00:14:26;;;;;;;5.97;3.80;;;;;;;22.96;55.98;101010.50;4990291;28;20054;-79
2022/09/13 00:16:52;;;;;;;8.68;4.97;;;;;;;22.96;56.22;101015.91;4990850;28;20050;-79
2022/09/13 00:19:19;;;;;;;6.30;4.70;;;;;;;23.12;56.38;101039.09;4990040;28;20046;-79
2022/09/13 00:21:45;;;;;;;7.60;4.68;;;;;;;22.67;56.59;100976.56;4989550;28;20052;-79
2022/09/13 00:24:12;;;;;;;5.45;3.70;;;;;;;22.73;55.77;100987.41;5007318;28;20057;-77
2022/09/13 00:26:39;;;;;;;7.75;3.53;;;;;;;22.81;56.19;100995.28;4989516;28;20417;-79
2022/09/13 00:29:05;;;;;;;4.20;3.28;;;;;;;22.91;55.84;101011.13;5007098;28;20227;-77
2022/09/13 00:31:32;;;;;;;7.07;3.38;;;;;;;23.07;55.89;101034.28;4989856;28;20056;-77
2022/09/13 00:33:59;;;;;;;7.57;3.70;;;;;;;22.78;55.72;100998.44;4989545;28;20052;-78
2022/09/13 00:36:26;;;;;;;7.18;3.70;;;;;;;22.94;55.29;101012.63;4989581;28;20516;-78
2022/09/13 00:38:53;;;;;;;5.13;3.78;;;;;;;22.99;56.14;101010.16;4989310;28;20085;-78
2022/09/13 00:41:20;;;;;;;4.28;3.10;;;;;;;23.19;54.50;101035.31;4989127;28;20322;-78
2022/09/13 00:43:59;;;;;;;4.70;3.13;;;;;;;23.16;54.15;101008.69;4989610;28;20572;-78
2022/09/13 00:46:29;;;;;;;4.97;2.72;;;;;;;23.37;53.89;101028.44;5006401;28;20129;-79
2022/09/13 00:49:01;;;;;;;6.22;2.90;;;;;;;23.38;53.50;101040.94;5005636;28;20053;-79
2022/09/13 00:51:29;;;;;;;3.03;2.53;;;;;;;23.23;53.73;100997.84;4989136;28;20461;-79
2022/09/13 00:53:58;;;;;;;4.22;2.95;;;;;;;23.31;53.54;101015.75;4989414;28;20053;-79
2022/09/13 00:56:39;;;;;;;3.90;3.50;;;;;;;23.23;53.61;101028.47;5006775;28;20060;-79
2022/09/13 00:59:14;;;;;;;7.95;3.42;;;;;;;23.28;54.09;101038.66;4988964;28;20072;-79
2022/09/13 01:01:46;;;;;;;5.20;3.03;;;;;;;23.24;54.03;101032.81;5006237;28;20081;-79
2022/09/13 01:04:15;;;;;;;4.05;3.10;;;;;;;22.91;54.35;100956.97;5006727;28;20504;-79
2022/09/13 01:06:42;;;;;;;8.90;3.63;;;;;;;23.25;53.69;101006.56;5004890;28;20050;-78
2022/09/13 01:09:11;;;;;;;8.15;3.13;;;;;;;;;;5006410;28;20406;-81
2022/09/13 01:11:46;;;;;;;6.97;3.50;;;;;;;23.12;53.23;100996.59;4991953;28;20041;-79
2022/09/13 01:14:13;;;;;;;4.65;3.08;;;;;;;23.25;53.22;101026.38;4989585;28;20417;-78
2022/09/13 01:16:39;;;;;;;5.85;3.40;;;;;;;23.23;53.17;101030.34;4988899;28;20054;-81
2022/09/13 01:19:11;;;;;;;4.78;2.90;;;;;;;;;;4989959;28;20056;-80
2022/09/13 01:22:13;;;;;;;6.30;2.63;;;;;;;23.23;54.44;101019.50;4988665;28;20042;-79
2022/09/13 01:24:51;;;;;;;3.60;2.88;;;;;;;22.87;53.38;100971.19;4984980;28;20064;-78
2022/09/13 01:27:33;;;;;;;4.97;2.75;;;;;;;22.79;53.16;100954.09;4988463;28;20077;-79
2022/09/13 01:30:23;;;;;;;5.82;2.70;;;;;;;23.16;52.71;101011.38;5006020;28;20050;-80
2022/09/13 01:33:04;;;;;;;4.13;2.85;;;;;;;23.04;52.74;100986.81;5005958;28;20363;-79
2022/09/13 01:35:58;;;;;;;5.93;2.78;;;;;;;23.17;52.70;101017.63;5005990;28;20232;-79
2022/09/13 01:38:41;;;;;;;4.93;2.75;;;;;;;23.14;52.77;101021.59;4988713;28;20136;-79
2022/09/13 01:41:29;;;;;;;6.05;3.05;;;;;;;23.08;52.88;100998.03;4988481;28;20207;-79
2022/09/13 01:44:52;;;;;;;7.15;2.95;;;;;;;23.19;53.14;101002.00;4988873;28;20054;-79
2022/09/13 01:47:25;;;;;;;6.82;2.92;;;;;;;23.27;52.29;101003.66;4973848;28;20050;-79
2022/09/13 01:50:17;;;;;;;3.80;2.53;;;;;;;23.28;52.99;100999.88;4988600;28;20068;-80
2022/09/13 01:52:57;;;;;;;9.07;3.08;;;;;;;23.42;52.38;101006.94;4988241;28;20073;-79
2022/09/13 01:55:45;;;;;;;5.90;3.17;;;;;;;23.21;52.80;100972.84;4988685;28;20062;-79
2022/09/13 01:58:22;;;;;;;6.38;2.80;;;;;;;22.51;52.48;100858.78;5004561;28;20053;-79
2022/09/13 02:01:03;;;;;;;7.30;3.05;;;;;;;23.37;52.49;101004.06;4988158;28;20517;-79
2022/09/13 02:03:39;;;;;;;6.28;3.03;;;;;;;23.04;52.95;100967.03;4988267;28;20066;-78
2022/09/13 02:06:19;;;;;;;9.10;3.13;;;;;;;22.86;53.04;100953.25;4988459;28;20056;-79
2022/09/13 02:08:50;;;;;;;4.43;2.78;;;;;;;23.00;53.46;100988.25;4994803;28;20300;-77
2022/09/13 02:11:21;;;;;;;;;;;;;;;22.97;53.30;100993.25;4990525;28;20060;-81
2022/09/13 02:13:50;;;;;;;3.65;2.50;;;;;;;22.91;53.95;101004.88;4989367;28;20162;-79
2022/09/13 02:16:49;;;;;;;7.95;3.45;;;;;;;22.72;53.84;100988.44;5006381;28;20379;-80
2022/09/13 02:19:21;;;;;;;5.38;3.20;;;;;;;22.72;54.28;101006.53;4988360;28;20133;-78
2022/09/13 02:21:53;;;;;;;5.65;3.13;;;;;;;22.31;54.66;100945.31;5004442;28;20054;-79
2022/09/13 02:24:26;;;;;;;6.50;3.42;;;;;;;22.53;54.68;100989.25;4988330;28;20068;-79
2022/09/13 02:26:56;;;;;;;3.90;2.95;;;;;;;22.43;54.43;100975.28;5005690;28;20128;-79
2022/09/13 02:29:27;;;;;;;5.60;2.83;;;;;;;22.44;54.80;100968.84;4988457;28;20325;-79
2022/09/13 02:32:07;;;;;;;6.72;3.22;;;;;;;22.58;55.04;100994.88;5004471;28;20117;-78
2022/09/13 02:34:42;;;;;;;4.65;2.90;;;;;;;22.54;55.07;100993.63;5005689;28;20160;-78
2022/09/13 02:37:10;;;;;;;4.47;3.10;;;;;;;22.46;55.30;100991.13;5005512;28;20056;-77
2022/09/13 02:39:46;;;;;;;5.55;3.47;;;;;;;22.47;55.78;100985.47;4991409;28;20457;-79
2022/09/13 02:42:24;;;;;;;6.38;3.20;;;;;;;22.40;55.71;100977.38;4991681;28;20128;-78
2022/09/13 02:44:55;;;;;;;4.45;3.50;;;;;;;22.43;55.77;100991.50;4991700;28;20046;-80
2022/09/13 02:47:30;;;;;;;7.45;3.58;;;;;;;22.35;55.98;100987.94;4991560;28;20588;-79
2022/09/13 02:50:18;;;;;;;5.97;3.38;;;;;;;22.27;56.47;100992.72;5007609;28;20382;-79
2022/09/13 02:53:23;;;;;;;3.90;3.22;;;;;;;21.72;56.57;100914.34;4991317;28;20124;-78
2022/09/13 02:56:22;;;;;;;4.07;3.25;;;;;;;22.17;56.94;100993.09;5008040;28;20049;-78
2022/09/13 02:58:55;;;;;;;7.32;3.85;;;;;;;22.13;57.13;100986.41;4991583;28;20162;-78
2022/09/13 03:01:23;;;;;;;4.57;3.08;;;;;;;22.04;57.35;100971.41;4991536;28;20049;-79
2022/09/13 03:03:55;;;;;;;7.50;3.78;;;;;;;22.11;56.92;100989.34;5008498;28;20053;-79
2022/09/13 03:06:27;;;;;;;4.35;3.45;;;;;;;22.00;57.31;100967.47;5007530;28;20050;-78
2022/09/13 03:08:58;;;;;;;4.45;3.05;;;;;;;21.85;56.81;100946.00;4991084;28;20046;-78
2022/09/13 03:11:46;;;;;;;4.90;3.27;;;;;;;22.03;57.20;100980.56;4991557;28;20486;-79
2022/09/13 03:14:33;;;;;;;6.07;3.33;;;;;;;21.63;57.29;100911.00;4991122;28;20441;-79
2022/09/13 03:17:07;;;;;;;5.97;3.50;;;;;;;22.12;57.00;100980.19;4991062;28;20060;-77
2022/09/13 03:20:08;;;;;;;3.58;3.20;;;;;;;22.16;57.09;100981.44;5007452;28;20060;-78
2022/09/13 03:22:55;;;;;;;5.93;2.90;;;;;;;21.64;56.74;100901.00;5008968;28;20062;-78
2022/09/13 03:25:41;;;;;;;4.70;3.05;;;;;;;22.11;56.44;100970.41;4990885;28;20046;-78
2022/09/13 03:28:34;;;;;;;4.38;3.40;;;;;;;22.09;56.44;100975.19;4990969;28;20061;-78
2022/09/13 03:31:13;;;;;;;7.63;3.60;;;;;;;22.07;56.87;100981.84;4990872;28;20050;-78
2022/09/13 03:34:14;;;;;;;10.10;3.53;;;;;;;21.64;56.02;100912.66;4991958;28;20046;-79
2022/09/13 03:36:47;;;;;;;7.57;3.70;;;;;;;21.69;56.40;100931.78;4990560;28;20080;-79
2022/09/13 03:39:23;;;;;;;5.85;3.33;;;;;;;21.85;56.38;100963.03;4990895;28;20069;-78
2022/09/13 03:41:55;;;;;;;5.75;3.20;;;;;;;21.93;56.21;100976.38;4990618;28;20045;-78
2022/09/13 03:44:25;;;;;;;6.25;2.78;;;;;;;21.94;56.54;100982.59;5007066;28;20517;-78
2022/09/13 03:46:59;;;;;;;7.55;3.85;;;;;;;21.91;56.63;100973.03;4990850;28;20084;-77
2022/09/13 03:49:28;;;;;;;7.13;3.22;;;;;;;21.63;56.37;100931.78;5006008;28;20494;-78
2022/09/13 03:51:54;;;;;;;5.78;3.63;;;;;;;21.78;56.33;100948.66;5006729;28;20149;-77
2022/09/13 03:54:25;;;;;;;6.43;2.95;;;;;;;21.89;55.84;100958.88;4990693;28;20050;-79
2022/09/13 03:57:08;;;;;;;7.53;3.63;;;;;;;21.93;55.54;100960.16;5006592;28;20069;-80
2022/09/13 03:59:37;;;;;;;3.50;3.20;;;;;;;22.04;55.60;100971.41;4990821;28;20050;-80
2022/09/13 04:02:06;;;;;;;12.13;3.88;;;;;;;22.00;55.66;100971.00;4991107;28;20343;-78
2022/09/13 04:04:33;;;;;;;6.35;3.83;;;;;;;21.94;56.05;100972.66;4990225;28;20489;-79
2022/09/13 04:07:02;;;;;;;10.27;4.13;;;;;;;21.73;56.12;100949.28;4990525;28;20076;-79
2022/09/13 04:09:32;;;;;;;5.18;3.88;;;;;;;21.87;56.27;100977.19;5007311;28;20049;-79
2022/09/13 04:11:58;;;;;;;7.45;3.45;;;;;;;21.84;56.12;100972.16;4990095;28;20218;-76
2022/09/13 04:14:25;;;;;;;4.47;3.38;;;;;;;21.71;56.55;100950.50;4990272;28;20433;-79
2022/09/13 04:16:54;;;;;;;6.13;3.85;;;;;;;21.76;56.56;100965.06;4990412;28;20718;-78
2022/09/13 04:19:21;;;;;;;5.90;3.70;;;;;;;21.81;56.82;100980.69;5006247;28;20104;-78
2022/09/13 04:21:48;;;;;;;7.07;3.50;;;;;;;21.73;56.92;100970.06;4990398;28;20069;-78
2022/09/13 04:24:17;;;;;;;6.40;4.25;;;;;;;21.29;56.42;100904.56;5006618;28;20197;-80
2022/09/13 04:26:47;;;;;;;7.97;3.22;;;;;;;21.63;56.43;100964.19;5007412;28;20476;-77
2022/09/13 04:29:13;;;;;;;12.63;3.50;;;;;;;21.69;56.25;100985.81;5007131;28;20060;-78
2022/09/13 04:31:40;;;;;;;4.40;3.45;;;;;;;21.61;56.17;100972.50;4989553;28;20059;-76
2022/09/13 04:34:07;;;;;;;8.02;3.60;;;;;;;21.70;56.36;100981.25;4989909;28;20042;-79
2022/09/13 04:36:34;;;;;;;8.02;3.50;;;;;;;21.72;56.13;100982.75;4989652;28;20473;-78
2022/09/13 04:39:01;;;;;;;4.60;2.95;;;;;;;21.59;56.23;100958.34;4989815;28;20137;-78
2022/09/13 04:41:28;;;;;;;8.90;4.13;;;;;;;21.76;55.85;100991.25;5006561;28;20050;-80
2022/09/13 04:43:54;;;;;;;8.70;4.00;;;;;;;21.60;56.21;100953.78;4989458;28;20054;-78
2022/09/13 04:46:21;;;;;;;7.00;4.40;;;;;;;21.73;56.04;100984.41;5005338;28;20517;-79
2022/09/13 04:48:49;;;;;;;4.32;3.70;;;;;;;21.80;56.38;100997.94;4989442;28;20058;-79
2022/09/13 04:51:16;;;;;;;6.05;3.50;;;;;;;21.70;56.07;100987.50;5006015;28;20053;-79
2022/09/13 04:53:43;;;;;;;5.78;3.70;;;;;;;21.73;55.94;100988.97;4989064;28;20054;-78
2022/09/13 04:56:12;;;;;;;8.98;3.95;;;;;;;21.55;56.00;100957.94;4989501;28;20336;-79
2022/09/13 04:58:40;;;;;;;5.93;3.55;;;;;;;21.68;56.16;100983.34;4989201;28;20133;-78
2022/09/13 05:01:08;;;;;;;13.90;5.25;;;;;;;21.57;56.41;100970.38;4988592;28;20046;-77
2022/09/13 05:03:36;;;;;;;12.18;5.05;;;;;;;21.74;56.51;100983.34;5005273;28;20049;-79
2022/09/13 05:06:04;;;;;;;10.23;5.20;;;;;;;21.79;56.54;100990.84;5005498;28;20056;-79
2022/09/13 05:08:31;;;;;;;10.35;4.50;;;;;;;21.62;56.69;100968.75;4989238;28;20053;-78
2022/09/13 05:10:58;;;;;;;9.88;3.88;;;;;;;21.58;57.10;100969.34;5005614;28;20050;-79
2022/09/13 05:13:26;;;;;;;13.52;4.05;;;;;;;21.61;57.35;100980.59;4989288;28;20195;-80
2022/09/13 05:15:56;;;;;;;10.00;4.00;;;;;;;21.69;57.55;100983.13;4988928;28;20061;-78
2022/09/13 05:18:28;;;;;;;10.70;4.57;;;;;;;21.69;57.36;100985.00;4988980;28;20046;-80
2022/09/13 05:20:59;;;;;;;8.27;4.47;;;;;;;21.76;57.36;101002.06;5006303;28;20294;-78
2022/09/13 05:23:26;;;;;;;13.53;4.60;;;;;;;21.72;57.13;101000.78;4989232;28;20157;-79
2022/09/13 05:25:57;;;;;;;9.60;4.40;;;;;;;21.74;57.26;100993.31;5004885;28;20085;-77
2022/09/13 05:28:26;;;;;;;8.85;4.25;;;;;;;21.65;57.07;100972.91;4989129;28;20112;-77
2022/09/13 05:31:00;;;;;;;11.50;4.30;;;;;;;21.87;57.13;100993.41;5006679;28;20050;-79
2022/09/13 05:33:30;;;;;;;10.43;4.95;;;;;;;21.85;56.98;100978.44;4988759;28;20081;-79
2022/09/13 05:35:57;;;;;;;12.88;4.85;;;;;;;21.90;57.02;100982.19;4988302;28;20165;-79
2022/09/13 05:38:24;;;;;;;7.50;3.80;;;;;;;21.93;56.58;100992.59;5004997;28;20347;-78
2022/09/13 05:40:55;;;;;;;10.40;4.57;;;;;;;21.95;56.99;100990.50;4989034;28;20054;-78
2022/09/13 05:43:30;;;;;;;12.05;4.13;;;;;;;21.93;57.01;100998.00;4988712;28;20050;-79
2022/09/13 05:46:15;;;;;;;9.00;3.85;;;;;;;21.82;56.42;100979.66;4988603;28;20045;-78
2022/09/13 05:48:42;;;;;;;9.68;4.30;;;;;;;21.94;56.36;101005.09;4988537;28;20140;-79
2022/09/13 05:51:23;;;;;;;8.50;4.38;;;;;;;21.72;55.66;100957.56;4989571;28;20050;-78
2022/09/13 05:53:51;;;;;;;4.40;3.15;;;;;;;22.01;56.36;100996.16;4989355;28;20054;-77
2022/09/13 05:56:21;;;;;;;10.75;4.03;;;;;;;21.95;56.29;100984.28;4995574;28;20460;-81
2022/09/13 05:58:52;;;;;;;5.75;3.58;;;;;;;22.11;56.46;101015.53;5025092;28;20148;-79
2022/09/13 06:01:21;;;;;;;8.60;3.95;;;;;;;22.11;55.82;101004.69;5008207;28;20054;-78
2022/09/13 06:03:53;;;;;;;7.55;3.83;;;;;;;21.39;56.15;100898.84;5007822;28;20176;-78
2022/09/13 06:06:20;;;;;;;6.60;4.45;;;;;;;22.16;56.03;101008.50;5007847;28;20511;-78
2022/09/13 06:08:51;;;;;;;9.35;3.40;;;;;;;21.77;55.86;100938.88;4996748;28;20057;-79
2022/09/13 06:11:18;;;;;;;6.47;4.10;;;;;;;22.06;55.71;100988.25;4988643;28;20050;-78
2022/09/13 06:13:45;;;;;;;7.72;3.72;;;;;;;22.30;55.51;101009.38;5008659;28;20324;-79
2022/09/13 06:16:14;;;;;;;14.18;4.38;;;;;;;22.00;55.41;100960.19;4992832;28;20045;-79
2022/09/13 06:18:42;;;;;;;10.10;4.28;;;;;;;22.33;54.94;101014.41;5008124;28;20088;-79
2022/09/13 06:21:16;;;;;;;7.07;3.95;;;;;;;22.29;54.78;101007.72;5008046;28;20267;-78
2022/09/13 06:23:44;;;;;;;7.90;3.42;;;;;;;22.14;55.47;100982.69;5008959;28;20038;-78
2022/09/13 06:26:13;;;;;;;10.10;3.35;;;;;;;21.39;54.94;100858.31;4993479;28;20125;-77
2022/09/13 06:28:41;;;;;;;9.98;4.05;;;;;;;22.39;54.99;101018.97;5010985;28;20078;-77
2022/09/13 06:31:11;;;;;;;10.35;3.70;;;;;;;22.35;54.73;101016.88;4992357;28;20144;-77
2022/09/13 06:33:40;;;;;;;8.25;3.60;;;;;;;22.50;54.73;101024.81;5008080;28;20053;-78
2022/09/13 06:36:13;;;;;;;10.13;4.05;;;;;;;22.53;54.20;101013.59;5008319;28;20413;-76
2022/09/13 06:38:40;;;;;;;8.18;3.58;;;;;;;22.61;54.33;101025.06;4992302;28;20343;-78
2022/09/13 06:41:10;;;;;;;10.63;3.75;;;;;;;22.65;54.49;101027.34;4991982;28;20069;-78
2022/09/13 06:43:37;;;;;;;7.68;4.25;;;;;;;22.68;54.15;101026.94;4991683;28;20137;-77
2022/09/13 06:46:14;;;;;;;13.77;4.40;;;;;;;22.72;53.82;101022.78;5007981;28;20050;-78
2022/09/13 06:48:42;;;;;;;16.40;4.32;;;;;;;22.71;54.20;101013.81;4991545;28;20042;-78
2022/09/13 06:51:15;;;;;;;7.13;4.43;;;;;;;22.78;53.41;101011.97;4991553;28;20058;-77
2022/09/13 06:53:46;;;;;;;6.55;3.75;;;;;;;22.48;54.01;100968.22;4990886;28;20054;-77
2022/09/13 06:56:21;;;;;;;9.00;3.70;;;;;;;22.90;53.37;101014.88;4991092;28;20497;-78
2022/09/13 06:58:58;;;;;;;10.15;3.92;;;;;;;22.88;53.63;101006.13;4992049;28;20081;-78
2022/09/13 07:01:35;;;;;;;8.13;3.60;;;;;;;22.99;53.22;101012.84;4990685;28;20120;-77
2022/09/13 07:04:02;;;;;;;8.95;4.30;;;;;;;23.06;52.67;101018.25;4991433;28;20471;-77
2022/09/13 07:06:31;;;;;;;9.98;4.13;;;;;;;23.17;52.00;101017.63;4991500;28;20049;-77
2022/09/13 07:09:01;;;;;;;5.78;3.72;;;;;;;23.19;52.52;101013.66;4991329;28;20073;-78
2022/09/13 07:11:30;;;;;;;6.32;3.92;;;;;;;23.21;52.07;101005.34;4991292;28;20054;-78
2022/09/13 07:13:58;;;;;;;11.75;3.35;;;;;;;23.11;52.25;100989.50;4991394;28;20405;-76
2022/09/13 07:16:28;;;;;;;7.95;4.18;;;;;;;22.92;52.35;100947.84;4990593;28;20053;-77
2022/09/13 07:19:06;;;;;;;10.88;4.47;;;;;;;23.38;52.14;101022.81;4991088;28;20064;-79
2022/09/13 07:21:34;;;;;;;6.03;3.17;;;;;;;23.29;52.61;100993.44;4990663;28;20042;-78
2022/09/13 07:24:01;;;;;;;6.15;4.45;;;;;;;23.72;50.16;101028.16;4989956;28;20049;-78
2022/09/13 07:26:28;;;;;;;8.95;3.85;;;;;;;23.67;50.48;101017.97;4991306;28;20394;-79
2022/09/13 07:28:57;;;;;;;7.45;4.03;;;;;;;23.49;50.95;101001.53;4991225;28;20129;-77
2022/09/13 07:31:37;;;;;;;8.65;3.55;;;;;;;23.60;51.63;101017.97;4991159;28;20660;-76
2022/09/13 07:34:07;;;;;;;11.10;4.93;;;;;;;23.72;49.83;101014.63;5008811;28;20159;-79
2022/09/13 07:36:38;;;;;;;10.10;3.95;;;;;;;23.59;50.94;101013.59;4990990;28;20045;-78
2022/09/13 07:39:05;;;;;;;9.35;4.00;;;;;;;23.65;50.45;101004.63;4990975;28;20064;-78
2022/09/13 07:41:34;;;;;;;5.32;4.07;;;;;;;23.80;50.25;101017.13;5008259;28;20057;-80
2022/09/13 07:44:06;;;;;;;8.60;3.90;;;;;;;23.87;49.84;101005.19;4990889;28;20152;-76
2022/09/13 07:46:42;;;;;;;;;;;;;;;23.85;50.21;101004.56;5008748;28;20054;-78
2022/09/13 07:49:15;;;;;;;6.60;3.95;;;;;;;23.61;50.71;100957.28;4990571;28;20471;-76
2022/09/13 07:51:44;;;;;;;6.45;3.50;;;;;;;23.65;50.58;100963.97;4991084;28;20771;-78
2022/09/13 07:54:16;;;;;;;15.20;4.40;;;;;;;24.02;51.03;101006.81;4990608;28;20251;-79
2022/09/13 07:56:49;;;;;;;13.70;4.80;;;;;;;24.13;49.60;101016.13;4991350;28;20054;-78
2022/09/13 07:59:18;;;;;;;9.50;4.65;;;;;;;24.16;49.83;101000.28;5007961;28;20592;-77
2022/09/13 08:01:48;;;;;;;6.97;4.55;;;;;;;24.16;49.11;101002.97;5008062;28;20160;-77
2022/09/13 08:04:23;;;;;;;9.57;4.32;;;;;;;23.64;49.20;100923.50;4990172;28;20046;-78
2022/09/13 08:06:49;;;;;;;7.47;4.30;;;;;;;24.05;49.55;100996.34;4990824;28;20085;-76
2022/09/13 08:09:39;;;;;;;11.15;4.13;;;;;;;24.29;48.47;101013.75;4991953;28;20057;-76
2022/09/13 08:12:08;;;;;;;9.07;4.35;;;;;;;24.08;49.10;100995.94;4992277;28;20058;-78
2022/09/13 08:14:35;;;;;;;6.93;4.55;;;;;;;24.19;49.53;101007.97;4991411;28;20185;-77
2022/09/13 08:17:02;;;;;;;9.52;5.05;;;;;;;23.94;49.55;100972.63;4991084;28;20081;-77
2022/09/13 08:19:28;;;;;;;14.70;4.63;;;;;;;24.22;50.01;101014.84;4990633;28;20054;-79
2022/09/13 08:21:55;;;;;;;9.90;6.03;;;;;;;24.23;49.48;100997.53;4990496;28;20129;-77
2022/09/13 08:24:25;;;;;;;6.65;3.47;;;;;;;24.29;49.31;101002.06;4990633;28;20146;-76
2022/09/13 08:26:54;;;;;;;9.50;3.80;;;;;;;24.42;49.28;101007.44;4991227;28;20042;-78
2022/09/13 08:29:24;;;;;;;6.25;4.90;;;;;;;24.17;49.03;100960.41;4994876;28;20287;-75
2022/09/13 08:31:51;;;;;;;5.63;4.22;;;;;;;24.31;49.58;100979.09;4995686;28;20104;-76
2022/09/13 08:34:21;;;;;;;11.68;4.88;;;;;;;24.19;49.76;100969.16;5002323;28;20081;-76
2022/09/13 08:36:47;;;;;;;11.35;4.60;;;;;;;24.46;49.17;101002.41;5000465;28;20050;-80
2022/09/13 08:39:14;;;;;;;12.45;4.50;;;;;;;24.39;48.89;100983.44;5007435;28;20140;-78
2022/09/13 08:41:47;;;;;;;14.27;5.10;;;;;;;24.19;49.20;100928.47;4989492;28;20501;-78
2022/09/13 08:44:28;;;;;;;9.25;4.63;;;;;;;24.63;48.41;100997.28;4989399;28;20572;-78
2022/09/13 08:47:10;;;;;;;6.95;4.75;;;;;;;24.75;48.68;101017.25;4989958;28;20556;-77
2022/09/13 08:49:47;;;;;;;22.27;5.03;;;;;;;24.86;47.64;101018.44;4989771;28;20053;-77
2022/09/13 08:52:13;;;;;;;5.55;3.65;;;;;;;24.91;48.09;101024.88;4991115;28;20058;-75
2022/09/13 08:54:41;;;;;;;6.82;3.90;;;;;;;24.85;47.73;101011.34;4989906;28;20448;-77
2022/09/13 08:57:10;;;;;;;7.10;3.50;;;;;;;25.03;48.86;101043.16;4989531;28;20141;-78
2022/09/13 09:00:01;;;;;;;9.93;4.00;;;;;;;24.75;48.04;100981.97;4988973;28;20389;-79
2022/09/13 09:02:31;;;;;;;7.55;4.30;;;;;;;25.34;49.39;101026.81;4988964;28;20108;-78
2022/09/13 09:05:18;;;;;;;6.93;4.25;;;;;;;25.34;47.77;101015.94;4988994;28;20068;-78
2022/09/13 09:07:53;;;;;;;10.25;4.40;;;;;;;25.46;47.56;101024.16;4990051;28;20046;-77
2022/09/13 09:10:29;;;;;;;6.07;3.88;;;;;;;25.28;48.33;101000.53;5005855;28;20050;-77
2022/09/13 09:13:01;;;;;;;7.55;3.65;;;;;;;25.53;48.82;101024.94;4988650;28;20137;-78
2022/09/13 09:15:36;;;;;;;5.10;3.78;;;;;;;25.61;49.20;100993.94;5004518;28;20046;-77
2022/09/13 09:18:22;;;;;;;11.98;4.22;;;;;;;24.87;47.95;100871.56;4989903;28;20386;-76
2022/09/13 09:20:56;;;;;;;5.97;3.78;;;;;;;26.07;48.89;101027.06;4989766;28;20053;-76
2022/09/13 09:23:32;;;;;;;6.68;3.50;;;;;;;26.03;48.08;101028.59;5005246;28;20126;-76
2022/09/13 09:26:25;;;;;;;7.78;3.55;;;;;;;26.16;48.17;101018.38;4988913;28;20071;-78
2022/09/13 09:28:59;;;;;;;4.53;3.65;;;;;;;26.32;47.25;101000.56;5006456;28;20042;-77
2022/09/13 09:31:54;;;;;;;9.85;4.55;;;;;;;26.46;46.46;101014.84;5005095;28;20076;-79
2022/09/13 09:35:02;;;;;;;5.95;2.80;;;;;;;26.46;47.57;101011.25;4989114;28;20058;-75
2022/09/13 09:37:35;;;;;;;5.00;3.47;;;;;;;26.73;47.71;101003.56;4989697;28;20053;-78
2022/09/13 09:40:08;;;;;;;4.05;3.50;;;;;;;26.67;47.06;101007.22;5007271;28;20041;-76
2022/09/13 09:42:46;;;;;;;6.93;3.38;;;;;;;26.53;44.57;100977.47;4988666;28;20049;-78
2022/09/13 09:45:26;;;;;;;5.78;3.45;;;;;;;26.79;45.16;101018.97;4987901;28;20509;-78
2022/09/13 09:47:55;;;;;;;6.68;4.30;;;;;;;26.96;44.86;101019.94;4987859;28;20533;-78
2022/09/13 09:50:33;;;;;;;8.43;4.28;;;;;;;26.94;43.40;101002.97;5006237;28;20460;-76
2022/09/13 09:53:12;;;;;;;7.70;3.80;;;;;;;27.27;44.90;101029.69;5005289;28;20049;-79
2022/09/13 09:55:43;;;;;;;4.57;3.65;;;;;;;27.36;45.07;101005.66;4989113;28;20046;-79
2022/09/13 09:58:10;;;;;;;;;;;;;;;27.43;42.84;101005.50;4989468;28;20144;-77
2022/09/13 10:00:53;;;;;;;6.25;3.33;;;;;;;27.43;44.24;101014.53;4988096;28;19972;-77
2022/09/13 10:03:31;;;;;;;5.38;3.53;;;;;;;27.34;43.29;100980.53;4982643;28;20594;-78
2022/09/13 10:06:11;;;;;;;5.15;3.60;;;;;;;27.71;42.50;101007.50;4982875;28;20085;-76
2022/09/13 10:08:40;;;;;;;4.70;3.20;;;;;;;27.85;44.12;100992.53;4985311;28;20074;-78
2022/09/13 10:11:08;;;;;;;6.55;3.33;;;;;;;27.82;43.82;100990.31;4985291;28;20514;-82
2022/09/13 10:13:35;;;;;;;8.23;3.78;;;;;;;27.89;43.22;100990.16;4985810;28;20038;-79
2022/09/13 10:16:22;;;;;;;6.22;3.67;;;;;;;27.78;43.68;100972.72;4986741;28;20054;-80
2022/09/13 10:18:48;;;;;;;6.60;3.67;;;;;;;28.02;44.42;100986.31;5000284;28;20054;-80
2022/09/13 10:21:18;;;;;;;6.00;3.55;;;;;;;27.73;44.08;100928.97;4985693;28;20061;-78
2022/09/13 10:23:49;;;;;;;6.97;3.22;;;;;;;27.98;44.11;100974.22;4984840;28;20584;-78
2022/09/13 10:26:28;;;;;;;6.63;3.53;;;;;;;27.25;44.07;100878.38;4985780;28;20046;-78
2022/09/13 10:29:05;;;;;;;6.03;3.42;;;;;;;28.11;43.43;100999.34;4987456;28;20055;-79
2022/09/13 10:31:36;;;;;;;6.65;3.78;;;;;;;27.62;43.23;100889.78;4984800;28;20050;-78
2022/09/13 10:34:19;;;;;;;4.20;3.35;;;;;;;28.32;42.12;100997.81;4985092;28;20046;-80
2022/09/13 10:36:56;;;;;;;4.90;3.70;;;;;;;28.43;41.51;100993.38;4986815;28;20294;-80
2022/09/13 10:39:28;;;;;;;5.90;4.00;;;;;;;28.62;40.21;100974.03;4986073;28;20552;-77
2022/09/13 10:41:57;;;;;;;10.10;3.70;;;;;;;28.94;39.93;100985.25;4985460;28;20612;-78
2022/09/13 10:44:31;;;;;;;6.97;4.00;;;;;;;28.39;40.22;100866.59;4986008;28;20042;-77
2022/09/13 10:47:02;;;;;;;5.70;3.90;;;;;;;28.91;40.97;100929.19;4986197;28;20065;-79
2022/09/13 10:49:53;;;;;;;6.15;3.25;;;;;;;29.15;41.73;100970.84;4983201;28;20050;-77
2022/09/13 10:52:24;;;;;;;;;;;;;;;29.15;40.55;100972.72;4983984;28;20136;-77
2022/09/13 10:54:52;;;;;;;6.75;3.53;;;;;;;29.08;41.38;100912.78;4983643;28;20392;-79
2022/09/13 10:57:33;;;;;;;5.53;3.40;;;;;;;28.61;40.79;100918.59;4984344;28;20058;-78
2022/09/13 11:00:01;;;;;;;6.32;3.95;;;;;;;28.52;42.54;100925.53;4988354;28;20062;-78
2022/09/13 11:02:43;;;;;;;7.60;3.63;;;;;;;28.85;41.64;100945.75;4987513;28;20058;-77
2022/09/13 11:05:21;;;;;;;11.68;4.35;;;;;;;28.17;40.75;100805.66;4988499;28;20100;-79
2022/09/13 11:08:05;;;;;;;7.45;4.55;;;;;;;29.36;40.11;100949.25;4987359;28;20050;-79
2022/09/13 11:10:50;;;;;;;11.38;5.07;;;;;;;29.38;40.31;100914.28;5006680;28;20050;-78
2022/09/13 11:13:55;;;;;;;6.78;5.40;;;;;;;29.67;40.38;100936.00;5006301;28;20494;-77
2022/09/13 11:16:43;;;;;;;21.40;14.10;;;;;;;29.37;40.71;100882.53;4983916;28;20235;-78
2022/09/13 11:19:47;;;;;;;26.23;15.70;;;;;;;29.32;41.18;100931.66;5007093;28;20421;-77
2022/09/13 11:22:24;;;;;;;25.77;14.45;;;;;;;29.51;41.03;100913.06;4967538;28;20388;-77
2022/09/13 11:25:10;;;;;;;27.42;15.95;;;;;;;29.35;41.72;100928.44;4969432;28;20161;-79
2022/09/13 11:27:47;;;;;;;20.67;13.35;;;;;;;29.16;41.95;100917.81;4968032;28;20051;-77
2022/09/13 11:30:22;;;;;;;7.53;5.05;;;;;;;29.25;39.85;100914.63;4968134;28;20054;-80
2022/09/13 11:33:07;;;;;;;;;;;;;;;29.37;40.13;100915.34;4978542;28;20058;-77
2022/09/13 11:36:33;;;;;;;12.00;6.68;;;;;;;29.72;39.95;100914.16;5007213;28;20121;-78
2022/09/13 11:39:29;;;;;;;7.00;5.00;;;;;;;29.81;39.43;100909.88;4953751;28;20137;-84
2022/09/13 11:42:11;;;;;;;10.60;5.43;;;;;;;30.43;38.29;100920.34;4968479;28;20054;-78
2022/09/13 11:44:53;;;;;;;11.70;5.45;;;;;;;30.52;38.07;100915.22;4980902;28;20078;-79
2022/09/13 11:47:32;;;;;;;11.43;6.95;;;;;;;30.31;38.88;100858.63;4991996;28;20077;-79
2022/09/13 11:50:04;;;;;;;13.23;7.65;;;;;;;30.39;39.05;100911.03;4990225;28;20058;-78
2022/09/13 11:52:46;;;;;;;7.28;5.43;;;;;;;29.94;39.29;100865.66;4988564;28;20262;-79
2022/09/13 11:55:17;;;;;;;10.10;6.25;;;;;;;30.08;39.41;100849.66;4987717;28;20137;-79
2022/09/13 11:58:04;;;;;;;10.98;5.72;;;;;;;30.14;39.35;100886.94;4988320;28;20046;-79
2022/09/13 12:00:39;;;;;;;10.13;6.85;;;;;;;30.15;39.44;100882.31;4986915;28;20129;-79